createdAt,value
2024-02-02T04:32:08.156Z,12.05
2024-02-02T04:34:35.643Z,14.48
2024-02-02T04:37:02.778Z,10.57
2024-02-02T04:39:30.590Z,11.73
2024-02-02T04:41:57.691Z,14.65
2024-02-02T04:44:25.764Z,13.88
2024-02-02T04:46:54.183Z,14.95
2024-02-02T04:49:21.388Z,12.63
2024-02-02T04:51:48.506Z,13.15
2024-02-02T04:54:16.093Z,10.32
2024-02-02T04:56:43.402Z,15.38
2024-02-02T04:59:10.422Z,12.60
2024-02-02T05:01:37.487Z,11.00
2024-02-02T05:04:04.823Z,19.92
2024-02-02T05:06:32.148Z,14.90
2024-02-02T05:08:59.626Z,15.23
2024-02-02T05:11:26.672Z,18.38
2024-02-02T05:13:53.657Z,18.35
2024-02-02T05:16:21.971Z,13.68
2024-02-02T05:18:49.292Z,16.70
2024-02-02T05:21:16.450Z,11.30
2024-02-02T05:23:49.213Z,20.80
2024-02-02T05:26:18.719Z,16.73
2024-02-02T05:28:46.842Z,13.48
2024-02-02T05:31:13.992Z,13.10
2024-02-02T05:33:42.715Z,13.73
2024-02-02T05:36:11.971Z,12.73
2024-02-02T05:38:39.584Z,13.05
2024-02-02T05:41:06.987Z,12.80
2024-02-02T05:43:34.300Z,12.75
2024-02-02T05:46:01.396Z,12.15
2024-02-02T05:48:28.484Z,12.48
2024-02-02T05:50:55.768Z,14.45
2024-02-02T05:53:22.909Z,12.23
2024-02-02T05:55:50.051Z,10.13
2024-02-02T05:58:17.160Z,12.50
2024-02-02T06:00:44.267Z,11.48
2024-02-02T06:03:11.330Z,11.40
2024-02-02T06:05:38.602Z,10.35
2024-02-02T06:08:07.768Z,17.58
2024-02-02T06:10:35.263Z,11.98
2024-02-02T06:13:02.340Z,14.82
2024-02-02T06:15:29.452Z,15.88
2024-02-02T06:17:57.156Z,14.38
2024-02-02T06:20:24.306Z,10.55
2024-02-02T06:22:51.419Z,12.02
2024-02-02T06:25:19.016Z,12.07
2024-02-02T06:27:46.192Z,12.95
2024-02-02T06:30:14.432Z,11.50
2024-02-02T06:32:42.738Z,12.70
2024-02-02T06:35:10.295Z,13.02
2024-02-02T06:37:37.441Z,15.05
2024-02-02T06:40:05.687Z,14.50
2024-02-02T06:42:33.346Z,11.90
2024-02-02T06:45:00.533Z,9.18
2024-02-02T06:47:27.743Z,12.80
2024-02-02T06:49:54.964Z,11.45
2024-02-02T06:52:23.009Z,11.52
2024-02-02T06:54:50.250Z,10.77
2024-02-02T06:57:18.406Z,13.48
2024-02-02T06:59:45.556Z,10.98
2024-02-02T07:02:20.048Z,14.55
2024-02-02T07:04:47.843Z,10.13
2024-02-02T07:07:14.991Z,13.85
2024-02-02T07:09:43.775Z,12.55
2024-02-02T07:12:11.230Z,13.80
2024-02-02T07:14:44.398Z,13.77
2024-02-02T07:17:41.106Z,10.32
2024-02-02T07:20:18.451Z,16.77
2024-02-02T07:22:45.427Z,11.65
2024-02-02T07:25:13.537Z,14.23
2024-02-02T07:27:52.566Z,14.63
2024-02-02T07:30:46.037Z,16.10
2024-02-02T07:33:22.185Z,16.70
2024-02-02T07:35:49.329Z,14.55
2024-02-02T07:38:51.020Z,15.88
2024-02-02T07:41:18.978Z,17.33
2024-02-02T07:43:46.191Z,15.10
2024-02-02T07:46:15.921Z,16.35
2024-02-02T07:48:44.343Z,15.95
2024-02-02T07:51:12.837Z,18.77
2024-02-02T07:53:40.273Z,17.50
2024-02-02T07:56:07.530Z,18.92
2024-02-02T07:58:34.550Z,18.25
2024-02-02T08:01:01.631Z,17.73
2024-02-02T08:03:29.060Z,15.48
2024-02-02T08:05:56.505Z,14.27
2024-02-02T08:08:23.672Z,13.65
2024-02-02T08:10:50.912Z,17.45
2024-02-02T08:13:19.764Z,13.23
2024-02-02T08:15:46.935Z,14.68
2024-02-02T08:18:14.194Z,13.23
2024-02-02T08:20:41.465Z,15.05
2024-02-02T08:23:08.489Z,16.65
2024-02-02T08:25:35.677Z,13.80
2024-02-02T08:28:03.038Z,13.77
2024-02-02T08:30:30.271Z,13.60
2024-02-02T08:32:57.567Z,15.38
2024-02-02T08:35:26.400Z,11.80
2024-02-02T08:37:56.745Z,13.20
2024-02-02T08:40:39.635Z,12.90
2024-02-02T08:43:22.673Z,10.10
2024-02-02T08:46:10.803Z,13.10
2024-02-02T08:48:39.837Z,12.23
2024-02-02T08:51:24.659Z,12.85
2024-02-02T08:54:36.343Z,12.70
2024-02-02T08:57:12.916Z,12.63
2024-02-02T08:59:44.468Z,12.18
2024-02-02T09:02:23.094Z,12.23
2024-02-02T09:05:10.650Z,11.32
2024-02-02T09:07:37.897Z,11.10
2024-02-02T09:10:32.987Z,12.52
2024-02-02T09:13:02.162Z,12.32
2024-02-02T09:15:35.192Z,11.45
2024-02-02T09:18:02.507Z,11.93
2024-02-02T09:20:51.035Z,10.45
2024-02-02T09:23:18.220Z,10.77
2024-02-02T09:25:46.093Z,11.02
2024-02-02T09:28:42.756Z,11.02
2024-02-02T09:31:13.072Z,11.90
2024-02-02T09:33:47.185Z,13.40
2024-02-02T09:36:14.645Z,11.55
2024-02-02T09:38:43.130Z,12.93
2024-02-02T09:41:52.108Z,11.57
2024-02-02T09:44:29.980Z,11.52
2024-02-02T09:47:00.893Z,10.65
2024-02-02T09:49:41.407Z,9.93
2024-02-02T09:52:33.279Z,12.13
2024-02-02T09:55:08.137Z,10.02
2024-02-02T09:57:46.918Z,9.80
2024-02-02T10:00:33.604Z,8.48
2024-02-02T10:03:09.101Z,9.98
2024-02-02T10:06:19.386Z,9.80
2024-02-02T10:08:49.226Z,9.90
2024-02-02T10:11:25.312Z,10.07
2024-02-02T10:14:00.700Z,8.50
2024-02-02T10:16:36.152Z,9.02
2024-02-02T10:19:23.434Z,10.63
2024-02-02T10:22:37.090Z,9.45
2024-02-02T10:25:07.353Z,10.55
2024-02-02T10:27:54.071Z,10.75
2024-02-02T10:31:00.517Z,11.35
2024-02-02T10:33:39.572Z,8.32
2024-02-02T10:36:37.645Z,8.30
2024-02-02T10:39:29.972Z,9.68
2024-02-02T10:42:20.497Z,10.02
2024-02-02T10:45:11.093Z,8.98
2024-02-02T10:48:07.210Z,10.63
2024-02-02T10:53:29.471Z,10.35
2024-02-02T10:56:15.544Z,8.15
2024-02-02T10:59:50.251Z,11.90
2024-02-02T11:02:41.879Z,11.57
2024-02-02T11:05:24.895Z,8.55
2024-02-02T11:07:55.300Z,12.98
2024-02-02T11:10:24.927Z,11.80
2024-02-02T11:12:58.848Z,13.52
2024-02-02T11:15:47.097Z,8.45
2024-02-02T11:18:33.448Z,7.45
2024-02-02T11:21:28.196Z,8.57
2024-02-02T11:24:23.085Z,9.80
2024-02-02T11:27:22.571Z,9.80
2024-02-02T11:29:49.541Z,8.38
2024-02-02T11:32:28.723Z,7.97
2024-02-02T11:35:37.047Z,8.18
2024-02-02T11:38:42.573Z,7.53
2024-02-02T11:41:17.244Z,5.88
2024-02-02T11:43:45.695Z,7.85
2024-02-02T11:46:13.994Z,6.75
2024-02-02T11:48:42.513Z,7.13
2024-02-02T11:51:10.694Z,5.75
2024-02-02T11:54:33.581Z,7.05
2024-02-02T11:57:00.918Z,6.63
2024-02-02T11:59:33.384Z,5.40
2024-02-02T12:02:37.420Z,6.97
2024-02-02T12:05:12.967Z,7.72
2024-02-02T12:07:40.112Z,6.95
2024-02-02T12:10:09.480Z,6.80
2024-02-02T12:12:44.684Z,6.43
2024-02-02T12:15:12.276Z,7.22
2024-02-02T12:17:40.077Z,4.90
2024-02-02T12:20:10.535Z,7.35
2024-02-02T12:22:37.865Z,6.32
2024-02-02T12:25:05.823Z,5.63
2024-02-02T12:27:33.164Z,5.07
2024-02-02T12:30:00.690Z,6.53
2024-02-02T12:32:27.839Z,5.63
2024-02-02T12:34:54.951Z,7.70
2024-02-02T12:37:22.103Z,6.20
2024-02-02T12:39:53.087Z,5.05
2024-02-02T12:42:23.657Z,5.57
2024-02-02T12:44:51.621Z,6.43
2024-02-02T12:47:26.739Z,6.45
2024-02-02T12:49:56.059Z,5.10
2024-02-02T12:52:23.944Z,5.10
2024-02-02T12:54:52.704Z,5.07
2024-02-02T12:57:19.857Z,2.58
2024-02-02T12:59:47.163Z,5.50
2024-02-02T13:02:15.045Z,5.07
2024-02-02T13:04:42.614Z,4.25
2024-02-02T13:07:09.802Z,6.30
2024-02-02T13:09:39.703Z,5.53
2024-02-02T13:12:08.429Z,5.07
2024-02-02T13:14:36.936Z,4.70
2024-02-02T13:17:10.432Z,5.95
2024-02-02T13:19:40.078Z,2.70
2024-02-02T13:22:22.853Z,4.60
2024-02-02T13:24:51.289Z,5.25
2024-02-02T13:27:20.235Z,3.72
2024-02-02T13:29:52.955Z,4.72
2024-02-02T13:32:21.050Z,3.75
2024-02-02T13:34:48.405Z,4.40
2024-02-02T13:37:30.973Z,2.88
2024-02-02T13:40:00.029Z,4.15
2024-02-02T13:42:27.731Z,4.78
2024-02-02T13:44:54.768Z,4.25
2024-02-02T13:47:22.099Z,6.13
2024-02-02T13:49:53.854Z,4.00
2024-02-02T13:52:21.070Z,5.53
2024-02-02T13:54:48.679Z,4.28
2024-02-02T13:57:16.869Z,4.38
2024-02-02T13:59:44.270Z,4.43
2024-02-02T14:02:11.558Z,7.00
2024-02-02T14:04:38.716Z,4.53
2024-02-02T14:07:15.840Z,4.40
2024-02-02T14:09:43.513Z,4.95
2024-02-02T14:12:11.037Z,4.20
2024-02-02T14:14:38.155Z,5.13
2024-02-02T14:17:05.835Z,3.58
2024-02-02T14:19:33.630Z,4.35
2024-02-02T14:22:08.104Z,5.43
2024-02-02T14:24:45.626Z,5.13
2024-02-02T14:27:12.760Z,5.03
2024-02-02T14:29:43.540Z,4.57
2024-02-02T14:32:11.506Z,6.20
2024-02-02T14:34:38.802Z,4.00
2024-02-02T14:37:05.895Z,4.78
2024-02-02T14:39:33.118Z,5.05
2024-02-02T14:42:00.982Z,4.30
2024-02-02T14:44:29.936Z,4.38
2024-02-02T14:46:57.811Z,6.40
2024-02-02T14:49:27.097Z,4.95
2024-02-02T14:51:57.640Z,4.85
2024-02-02T14:54:26.803Z,4.72
2024-02-02T14:56:53.989Z,5.55
2024-02-02T14:59:24.757Z,5.25
2024-02-02T15:01:52.308Z,4.43
2024-02-02T15:04:20.172Z,3.75
2024-02-02T15:06:47.261Z,4.55
2024-02-02T15:09:15.458Z,5.05
2024-02-02T15:11:43.237Z,4.78
2024-02-02T15:14:10.655Z,4.93
2024-02-02T15:16:37.968Z,5.80
2024-02-02T15:19:05.402Z,5.93
2024-02-02T15:21:33.099Z,5.25
2024-02-02T15:24:00.419Z,5.00
2024-02-02T15:26:27.584Z,5.97
2024-02-02T15:28:54.673Z,5.80
2024-02-02T15:31:21.745Z,4.68
2024-02-02T15:33:49.083Z,5.97
2024-02-02T15:36:16.889Z,4.88
2024-02-02T15:38:59.998Z,5.93
2024-02-02T15:41:31.096Z,5.90
2024-02-02T15:43:58.284Z,5.28
2024-02-02T15:46:25.484Z,7.07
2024-02-02T15:48:53.177Z,6.28
2024-02-02T15:51:21.173Z,5.22
2024-02-02T15:53:48.295Z,8.88
2024-02-02T15:56:16.850Z,5.32
2024-02-02T15:58:44.530Z,4.20
2024-02-02T16:01:13.265Z,4.97
2024-02-02T16:03:41.814Z,5.40
2024-02-02T16:06:10.346Z,5.82
2024-02-02T16:08:37.931Z,5.40
2024-02-02T16:11:05.666Z,5.28
2024-02-02T16:13:32.983Z,5.45
2024-02-02T16:16:00.402Z,4.45
2024-02-02T16:18:27.657Z,5.20
2024-02-02T16:20:55.087Z,4.50
2024-02-02T16:23:22.316Z,4.60
2024-02-02T16:25:49.433Z,5.20
2024-02-02T16:28:16.545Z,4.40
2024-02-02T16:30:43.896Z,4.45
2024-02-02T16:33:11.122Z,4.38
2024-02-02T16:35:38.715Z,4.97
2024-02-02T16:38:05.822Z,5.38
2024-02-02T16:40:32.908Z,6.35
2024-02-02T16:43:00.059Z,5.07
2024-02-02T16:45:27.092Z,5.40
2024-02-02T16:47:54.772Z,4.47
2024-02-02T16:50:22.192Z,5.55
2024-02-02T16:52:49.239Z,5.35
2024-02-02T16:55:16.382Z,5.25
2024-02-02T16:57:43.546Z,5.80
2024-02-02T17:00:12.582Z,4.13
2024-02-02T17:02:39.774Z,6.15
2024-02-02T17:05:07.265Z,5.65
2024-02-02T17:07:34.422Z,4.70
2024-02-02T17:10:01.560Z,4.65
2024-02-02T17:12:28.734Z,4.55
2024-02-02T17:14:56.005Z,4.97
2024-02-02T17:17:23.192Z,5.97
2024-02-02T17:19:50.421Z,5.40
2024-02-02T17:22:17.582Z,5.47
2024-02-02T17:24:45.039Z,6.78
2024-02-02T17:27:12.232Z,5.43
2024-02-02T17:29:42.876Z,6.55
2024-02-02T17:32:09.912Z,6.10
2024-02-02T17:34:37.161Z,3.83
2024-02-02T17:37:04.468Z,5.03
2024-02-02T17:39:31.622Z,5.13
2024-02-02T17:41:58.781Z,5.55
2024-02-02T17:44:28.002Z,5.10
2024-02-02T17:46:55.433Z,5.68
2024-02-02T17:49:22.619Z,5.40
2024-02-02T17:51:50.248Z,4.60
2024-02-02T17:54:17.612Z,5.30
2024-02-02T17:56:44.855Z,5.38
2024-02-02T17:59:11.982Z,4.25
2024-02-02T18:01:39.307Z,4.05
2024-02-02T18:04:06.987Z,5.10
2024-02-02T18:06:34.290Z,5.28
2024-02-02T18:09:01.557Z,4.82
2024-02-02T18:11:28.619Z,5.88
2024-02-02T18:13:55.925Z,3.92
2024-02-02T18:16:23.084Z,4.22
2024-02-02T18:18:50.310Z,4.97
2024-02-02T18:21:17.491Z,4.53
2024-02-02T18:23:44.544Z,5.28
2024-02-02T18:26:11.578Z,5.28
2024-02-02T18:28:38.589Z,4.28
2024-02-02T18:31:05.750Z,3.97
2024-02-02T18:33:32.890Z,4.78
2024-02-02T18:36:00.004Z,5.78
2024-02-02T18:38:27.068Z,5.07
2024-02-02T18:40:54.169Z,6.28
2024-02-02T18:43:21.189Z,15.90
2024-02-02T18:45:48.372Z,3.67
2024-02-02T18:48:15.958Z,4.50
2024-02-02T18:50:43.594Z,2.92
2024-02-02T18:53:10.616Z,4.82
2024-02-02T18:55:37.632Z,9.65
2024-02-02T18:58:04.844Z,3.90
2024-02-02T19:00:32.238Z,6.60
2024-02-02T19:02:59.379Z,11.00
2024-02-02T19:05:26.649Z,4.00
2024-02-02T19:07:53.752Z,3.25
2024-02-02T19:10:21.360Z,3.63
2024-02-02T19:12:48.533Z,2.97
2024-02-02T19:15:15.768Z,0.98
2024-02-02T19:17:44.045Z,6.07
2024-02-02T19:20:12.172Z,6.78
2024-02-02T19:22:40.112Z,6.82
2024-02-02T19:25:07.325Z,4.57
2024-02-02T19:27:34.589Z,4.40
2024-02-02T19:30:01.974Z,4.00
2024-02-02T19:32:29.437Z,4.18
2024-02-02T19:34:56.678Z,7.05
2024-02-02T19:37:24.421Z,7.25
2024-02-02T19:39:51.607Z,4.80
2024-02-02T19:42:18.740Z,3.28
2024-02-02T19:44:45.989Z,3.10
2024-02-02T19:47:15.177Z,5.53
2024-02-02T19:49:42.683Z,5.15
2024-02-02T19:52:10.454Z,7.30
2024-02-02T19:54:38.137Z,3.78
2024-02-02T19:57:05.691Z,8.38
2024-02-02T19:59:33.024Z,3.20
2024-02-02T20:02:03.178Z,3.90
2024-02-02T20:04:30.932Z,3.55
2024-02-02T20:06:58.284Z,3.85
2024-02-02T20:09:25.838Z,3.28
2024-02-02T20:11:53.151Z,2.65
2024-02-02T20:14:20.169Z,4.90
2024-02-02T20:16:48.891Z,3.40
2024-02-02T20:19:17.414Z,4.55
2024-02-02T20:21:44.688Z,3.58
2024-02-02T20:24:11.989Z,3.08
2024-02-02T20:26:39.308Z,3.40
2024-02-02T20:29:06.482Z,3.08
2024-02-02T20:31:33.898Z,3.60
2024-02-02T20:34:01.422Z,3.58
2024-02-02T20:36:31.102Z,4.45
2024-02-02T20:38:58.284Z,3.50
2024-02-02T20:41:26.928Z,0.90
2024-02-02T20:43:59.126Z,3.95
2024-02-02T20:46:26.853Z,4.20
2024-02-02T20:48:54.315Z,4.47
2024-02-02T20:51:22.400Z,27.13
2024-02-02T20:53:50.031Z,18.38
2024-02-02T20:56:17.347Z,26.05
2024-02-02T20:58:44.369Z,12.25
2024-02-02T21:01:11.959Z,15.65
2024-02-02T21:03:39.277Z,9.00
2024-02-02T21:06:06.957Z,5.75
2024-02-02T21:08:34.044Z,8.27
2024-02-02T21:11:01.306Z,4.68
2024-02-02T21:13:28.537Z,10.55
2024-02-02T21:15:56.015Z,8.40
2024-02-02T21:18:24.782Z,4.22
2024-02-02T21:20:54.392Z,3.90
2024-02-02T21:23:21.685Z,17.23
2024-02-02T21:25:49.279Z,5.68
2024-02-02T21:28:18.388Z,2.95
2024-02-02T21:30:45.581Z,2.30
2024-02-02T21:33:13.591Z,2.88
2024-02-02T21:35:42.014Z,3.08
2024-02-02T21:38:09.297Z,23.00
2024-02-02T21:40:36.746Z,6.20
2024-02-02T21:43:04.397Z,7.95
2024-02-02T21:45:34.036Z,15.40
2024-02-02T21:48:01.384Z,14.00
2024-02-02T21:50:28.606Z,9.93
2024-02-02T21:52:55.865Z,12.80
2024-02-02T21:55:22.951Z,11.02
2024-02-02T21:57:50.373Z,6.70
2024-02-02T22:00:18.112Z,11.02
2024-02-02T22:02:46.884Z,7.70
2024-02-02T22:05:14.634Z,9.43
2024-02-02T22:07:42.215Z,8.35
2024-02-02T22:10:09.904Z,20.20
2024-02-02T22:12:36.961Z,17.27
2024-02-02T22:15:04.942Z,6.30
2024-02-02T22:17:32.480Z,11.88
2024-02-02T22:19:59.993Z,9.38
2024-02-02T22:22:27.052Z,11.35
2024-02-02T22:24:54.285Z,3.53
2024-02-02T22:27:23.690Z,3.75
2024-02-02T22:29:51.488Z,5.97
2024-02-02T22:32:21.496Z,4.90
2024-02-02T22:34:51.900Z,3.63
2024-02-02T22:37:19.094Z,3.08
2024-02-02T22:39:46.217Z,5.30
2024-02-02T22:42:13.321Z,4.03
2024-02-02T22:44:40.339Z,4.32
2024-02-02T22:47:07.344Z,4.07
2024-02-02T22:49:35.222Z,5.20
2024-02-02T22:52:02.582Z,4.22
2024-02-02T22:54:30.075Z,4.10
2024-02-02T22:56:57.184Z,4.78
2024-02-02T22:59:24.276Z,3.72
